Terminal Aerodrome Forecast
Issued by NWS

Home | Current Version | Previous Version | Text Only | Print | Product List | Glossary On
Versions: 1 2 3 4 5 6 7 8 9 10 11 12 13
437
FTUS45 KVEF 210148 AAA
TAFHND
TAF AMD
KHND 210148Z 2102/2124 16011KT P6SM BKN130
     FM210400 19010KT P6SM BKN130
     FM211200 VRB06KT P6SM BKN110 PROB30 2112/2118 -SHRA OVC110
     FM211800 07006KT P6SM VCTS BKN110CB OVC250=

USA.gov is the U.S. government's official web portal to all federal, state and local government web resources and services.